Time;durP1;ratioP1;P1;durP2;ratioP2;P2;SDS_P1;SDS_P2;PMS_P1;PMS_P2;Temp;Humidity;BMP_temperature;BMP_pressure;BME280_temperature;BME280_humidity;BME280_pressure;Samples;Min_cycle;Max_cycle;Signal;HPM_P1;HPM_P2
2021/01/15 00:02:25;;;;;;;20.47;14.30;;;1.80;99.90;;;;;;5003519;28;20496;-48
2021/01/15 00:04:52;;;;;;;19.87;14.33;;;1.70;99.90;;;;;;5002229;28;20482;-48
2021/01/15 00:07:21;;;;;;;20.27;15.47;;;1.70;99.90;;;;;;5002910;28;20480;-48
2021/01/15 00:09:48;;;;;;;20.73;14.00;;;1.70;99.90;;;;;;5002557;28;20485;-48
2021/01/15 00:12:16;;;;;;;19.20;15.17;;;1.70;99.90;;;;;;5022337;28;20491;-48
2021/01/15 00:14:43;;;;;;;19.20;14.90;;;1.90;99.90;;;;;;5023136;28;20988;-48
2021/01/15 00:17:14;;;;;;;20.50;14.80;;;1.80;99.90;;;;;;5023141;28;20488;-48
2021/01/15 00:19:42;;;;;;;18.53;13.87;;;1.70;99.90;;;;;;5007243;28;21040;-48
2021/01/15 00:22:10;;;;;;;23.17;15.43;;;1.70;99.90;;;;;;4995521;28;20492;-48
2021/01/15 00:24:37;;;;;;;19.90;14.00;;;1.70;99.90;;;;;;5003663;28;20488;-48
2021/01/15 00:27:06;;;;;;;24.43;16.00;;;1.80;99.90;;;;;;5014600;28;20509;-48
2021/01/15 00:29:33;;;;;;;20.77;15.80;;;1.90;99.90;;;;;;5013528;28;21013;-48
2021/01/15 00:32:04;;;;;;;19.03;14.80;;;1.80;99.90;;;;;;5007308;28;20924;-48
2021/01/15 00:34:32;;;;;;;20.03;14.93;;;1.80;99.90;;;;;;5006554;28;20580;-48
2021/01/15 00:37:00;;;;;;;21.67;14.37;;;1.70;99.90;;;;;;5010690;28;20495;-48
2021/01/15 00:39:28;;;;;;;19.40;14.40;;;1.70;99.90;;;;;;5008353;28;20776;-48
2021/01/15 00:41:55;;;;;;;19.73;14.80;;;1.70;99.90;;;;;;5008414;28;20912;-48
2021/01/15 00:44:48;;;;;;;18.87;14.00;;;1.70;99.90;;;;;;5007323;28;20479;-48
2021/01/15 00:47:19;;;;;;;21.37;15.10;;;1.70;99.90;;;;;;5007222;28;20485;-48
2021/01/15 00:49:47;;;;;;;20.00;15.13;;;1.80;99.90;;;;;;5007002;28;20488;-48
2021/01/15 00:52:16;;;;;;;19.60;14.80;;;1.80;99.90;;;;;;5007247;28;20879;-48
2021/01/15 00:54:44;;;;;;;19.23;14.33;;;1.70;99.90;;;;;;5013094;28;21194;-48
2021/01/15 00:57:11;;;;;;;21.13;14.77;;;1.70;99.90;;;;;;5019007;28;21020;-48
2021/01/15 00:59:38;;;;;;;20.70;15.17;;;1.70;99.90;;;;;;5027031;28;20475;-48
2021/01/15 01:02:20;;;;;;;18.87;14.20;;;1.60;99.90;;;;;;5031643;28;20566;-49
2021/01/15 01:04:49;;;;;;;20.93;15.17;;;1.60;99.90;;;;;;5016738;28;20491;-48
2021/01/15 01:07:17;;;;;;;21.93;15.17;;;1.60;99.90;;;;;;5008620;28;20872;-48
2021/01/15 01:09:45;;;;;;;23.57;15.20;;;1.60;99.90;;;;;;5022992;28;20476;-48
2021/01/15 01:12:13;;;;;;;20.17;15.53;;;1.60;99.90;;;;;;5027647;28;20480;-48
2021/01/15 01:14:40;;;;;;;23.17;14.60;;;1.60;99.90;;;;;;5008290;28;20842;-49
2021/01/15 01:17:07;;;;;;;21.33;14.73;;;1.60;99.90;;;;;;5008651;28;21000;-48
2021/01/15 01:19:35;;;;;;;21.07;15.43;;;1.60;99.90;;;;;;5008153;28;20491;-48
2021/01/15 01:22:03;;;;;;;21.43;15.53;;;1.60;99.90;;;;;;5007910;28;20546;-48
2021/01/15 01:24:31;;;;;;;22.43;16.00;;;1.50;99.90;;;;;;5015588;28;20828;-48
2021/01/15 01:26:59;;;;;;;22.93;15.67;;;1.60;99.90;;;;;;5025558;28;20504;-48
2021/01/15 01:29:26;;;;;;;23.60;15.93;;;1.60;99.90;;;;;;5028019;28;20471;-48
2021/01/15 01:31:54;;;;;;;19.37;14.87;;;1.60;99.90;;;;;;5027597;28;20485;-48
2021/01/15 01:34:22;;;;;;;21.37;15.87;;;1.60;99.90;;;;;;5010273;28;21058;-48
2021/01/15 01:36:50;;;;;;;22.70;15.67;;;1.60;99.90;;;;;;5006384;28;20495;-48
2021/01/15 01:39:17;;;;;;;22.63;16.63;;;1.60;99.90;;;;;;5007991;28;20500;-48
2021/01/15 01:41:45;;;;;;;23.23;15.83;;;1.60;99.90;;;;;;5007801;28;20534;-48
2021/01/15 01:44:13;;;;;;;24.03;16.20;;;1.60;99.90;;;;;;5015576;28;20480;-48
2021/01/15 01:47:05;;;;;;;21.20;15.80;;;1.60;99.90;;;;;;5025631;28;20482;-48
2021/01/15 01:49:33;;;;;;;21.30;15.80;;;1.60;99.90;;;;;;5027229;28;20475;-48
2021/01/15 01:52:03;;;;;;;20.93;15.33;;;1.60;99.90;;;;;;5027520;28;20496;-48
2021/01/15 01:54:34;;;;;;;25.73;17.47;;;1.60;99.90;;;;;;5009107;28;20494;-48
2021/01/15 01:57:04;;;;;;;24.23;16.97;;;1.60;99.90;;;;;;5008022;28;20480;-48
2021/01/15 01:59:32;;;;;;;21.20;16.33;;;1.60;99.90;;;;;;5007229;28;20495;-48
2021/01/15 02:02:25;;;;;;;24.43;17.23;;;1.50;99.90;;;;;;5008418;28;20529;-48
2021/01/15 02:04:53;;;;;;;23.23;17.27;;;1.60;99.90;;;;;;5006643;28;20472;-48
2021/01/15 02:07:21;;;;;;;24.13;16.73;;;1.60;99.90;;;;;;5019242;28;20452;-48
2021/01/15 02:10:19;;;;;;;24.10;16.43;;;1.60;99.90;;;;;;5027175;28;20483;-48
2021/01/15 02:13:07;;;;;;;22.50;16.53;;;1.50;99.90;;;;;;5022347;28;20483;-48
2021/01/15 02:15:39;;;;;;;23.90;16.73;;;1.50;99.90;;;;;;5007351;28;20908;-48
2021/01/15 02:18:11;;;;;;;22.83;16.67;;;1.50;99.90;;;;;;5007579;28;20481;-48
2021/01/15 02:21:29;;;;;;;23.53;15.93;;;1.50;99.90;;;;;;5007007;28;20891;-49
2021/01/15 02:24:06;;;;;;;23.20;16.57;;;1.50;99.90;;;;;;5014736;28;20472;-48
2021/01/15 02:27:30;;;;;;;21.40;15.87;;;1.50;99.90;;;;;;5020809;28;20559;-48
2021/01/15 02:30:18;;;;;;;21.37;15.63;;;1.50;99.90;;;;;;5027301;28;20507;-48
2021/01/15 02:32:59;;;;;;;22.53;15.93;;;1.50;99.90;;;;;;5023115;28;20503;-51
2021/01/15 02:35:47;;;;;;;22.50;16.20;;;1.50;99.90;;;;;;5009801;28;20480;-49
2021/01/15 02:38:45;;;;;;;22.77;15.73;;;1.50;99.90;;;;;;5009921;28;20508;-48
2021/01/15 02:41:23;;;;;;;21.33;15.27;;;1.50;99.90;;;;;;4996993;28;20476;-48
2021/01/15 02:43:56;;;;;;;20.93;15.57;;;1.50;99.90;;;;;;5013768;28;20817;-48
2021/01/15 02:46:44;;;;;;;21.87;15.20;;;1.60;99.90;;;;;;5011999;28;20480;-48
2021/01/15 02:49:14;;;;;;;20.37;14.37;;;1.50;99.90;;;;;;5014344;28;20547;-49
2021/01/15 02:51:41;;;;;;;21.97;14.37;;;1.50;99.90;;;;;;5010898;28;20484;-48
2021/01/15 02:54:10;;;;;;;23.17;13.50;;;1.50;99.90;;;;;;5011590;28;20519;-47
2021/01/15 02:56:38;;;;;;;20.50;14.20;;;1.50;99.90;;;;;;5010939;28;20567;-48
2021/01/15 02:59:05;;;;;;;19.70;13.70;;;1.50;99.90;;;;;;5016941;28;20487;-48
2021/01/15 03:01:37;;;;;;;20.13;12.73;;;1.50;99.90;;;;;;5009440;28;20468;-48
2021/01/15 03:04:13;;;;;;;17.83;12.17;;;1.40;99.90;;;;;;5010799;28;20518;-48
2021/01/15 03:06:48;;;;;;;17.13;12.30;;;1.40;99.90;;;;;;5010177;28;20480;-48
2021/01/15 03:09:18;;;;;;;16.10;11.50;;;1.40;99.90;;;;;;5010869;28;20832;-48
2021/01/15 03:11:47;;;;;;;18.83;11.37;;;1.50;99.90;;;;;;5010220;28;21018;-48
2021/01/15 03:14:17;;;;;;;14.20;11.20;;;1.40;99.90;;;;;;5010216;28;20495;-48
2021/01/15 03:16:46;;;;;;;17.60;10.90;;;1.40;99.90;;;;;;5010433;28;20485;-48
2021/01/15 03:19:17;;;;;;;17.03;11.67;;;1.40;99.90;;;;;;5010720;28;20487;-48
2021/01/15 03:21:45;;;;;;;16.10;11.20;;;1.40;99.90;;;;;;5009834;28;20980;-49
2021/01/15 03:24:12;;;;;;;15.70;11.10;;;1.40;99.90;;;;;;5012255;28;20493;-48
2021/01/15 03:26:40;;;;;;;15.83;10.87;;;1.30;99.90;;;;;;5021706;28;20570;-48
2021/01/15 03:29:13;;;;;;;16.80;11.53;;;1.30;99.90;;;;;;5030154;28;20484;-48
2021/01/15 03:31:42;;;;;;;15.80;11.57;;;1.30;99.90;;;;;;5029511;28;20832;-48
2021/01/15 03:34:10;;;;;;;15.23;10.53;;;1.30;99.90;;;;;;5019924;28;20485;-48
2021/01/15 03:36:39;;;;;;;16.70;11.40;;;1.30;99.90;;;;;;5010175;28;20480;-48
2021/01/15 03:39:06;;;;;;;13.73;10.10;;;1.30;99.90;;;;;;5010521;28;20492;-48
2021/01/15 03:41:33;;;;;;;16.43;10.90;;;1.30;99.90;;;;;;5010070;28;20481;-48
2021/01/15 03:44:01;;;;;;;16.80;11.07;;;1.30;99.90;;;;;;5009943;28;20535;-48
2021/01/15 03:46:29;;;;;;;15.10;11.03;;;1.30;99.90;;;;;;5021704;28;20568;-48
2021/01/15 03:48:56;;;;;;;15.70;11.40;;;1.30;99.90;;;;;;5029769;28;20479;-48
2021/01/15 03:51:25;;;;;;;15.73;11.33;;;1.30;99.90;;;;;;5029658;28;20818;-48
2021/01/15 03:53:53;;;;;;;17.60;11.63;;;1.30;99.90;;;;;;5020433;28;20990;-48
2021/01/15 03:56:20;;;;;;;15.70;11.20;;;1.30;99.90;;;;;;5010445;28;20469;-48
2021/01/15 03:58:47;;;;;;;16.50;11.37;;;1.30;99.90;;;;;;5016257;28;20938;-49
2021/01/15 04:01:16;;;;;;;15.77;11.97;;;1.30;99.90;;;;;;5012100;28;20515;-48
2021/01/15 04:03:43;;;;;;;16.70;11.10;;;1.30;99.90;;;;;;5022093;28;21051;-48
2021/01/15 04:06:14;;;;;;;16.23;11.43;;;1.30;99.90;;;;;;5009812;28;20480;-49
2021/01/15 04:08:41;;;;;;;15.57;11.13;;;1.30;99.90;;;;;;5009450;28;20481;-48
2021/01/15 04:11:11;;;;;;;14.53;10.20;;;1.30;99.90;;;;;;5010488;28;20810;-48
2021/01/15 04:13:38;;;;;;;16.13;10.50;;;1.30;99.90;;;;;;5020159;28;20480;-48
2021/01/15 04:16:05;;;;;;;16.00;11.17;;;1.30;99.90;;;;;;5029127;28;20499;-48
2021/01/15 04:18:33;;;;;;;12.90;9.60;;;1.30;99.90;;;;;;5029102;28;20472;-48
2021/01/15 04:21:05;;;;;;;14.60;10.40;;;1.30;99.90;;;;;;5021117;28;20525;-48
2021/01/15 04:23:33;;;;;;;14.67;10.57;;;1.30;99.90;;;;;;5008243;28;20556;-48
2021/01/15 04:26:00;;;;;;;15.03;10.53;;;1.30;99.90;;;;;;5016584;28;20479;-48
2021/01/15 04:28:29;;;;;;;14.67;9.90;;;1.30;99.90;;;;;;5022213;28;20467;-48
2021/01/15 04:30:56;;;;;;;13.97;10.07;;;1.30;99.90;;;;;;5013816;28;20477;-48
2021/01/15 04:33:25;;;;;;;14.67;9.80;;;1.20;99.90;;;;;;4989490;28;20536;-48
2021/01/15 04:35:52;;;;;;;13.50;9.93;;;1.20;99.90;;;;;;4990115;28;20489;-48
2021/01/15 04:38:20;;;;;;;15.03;9.43;;;1.20;99.90;;;;;;4989265;28;20473;-48
2021/01/15 04:40:47;;;;;;;12.37;9.00;;;1.20;99.90;;;;;;5016076;28;20486;-47
2021/01/15 04:43:18;;;;;;;14.53;9.47;;;1.20;99.90;;;;;;5027716;28;20820;-48
2021/01/15 04:45:46;;;;;;;11.97;8.83;;;1.20;99.90;;;;;;5028919;28;20482;-48
2021/01/15 04:48:17;;;;;;;14.07;9.90;;;1.20;99.90;;;;;;5027379;28;20512;-48
2021/01/15 04:50:45;;;;;;;14.37;9.33;;;1.20;99.90;;;;;;5010621;28;20484;-48
2021/01/15 04:53:17;;;;;;;12.10;8.90;;;1.20;99.90;;;;;;5007918;28;20481;-48
2021/01/15 04:55:45;;;;;;;14.47;9.40;;;1.20;99.90;;;;;;5005034;28;20492;-48
2021/01/15 04:58:16;;;;;;;12.57;8.90;;;1.10;99.90;;;;;;5007558;28;20997;-48
2021/01/15 05:00:49;;;;;;;11.20;8.40;;;1.20;99.90;;;;;;5028440;28;20551;-48
2021/01/15 05:03:16;;;;;;;10.20;8.20;;;1.10;99.90;;;;;;5027458;28;20487;-48
2021/01/15 05:05:49;;;;;;;10.90;8.17;;;1.10;99.90;;;;;;5021782;28;20479;-48
2021/01/15 05:08:25;;;;;;;10.87;8.03;;;1.10;99.90;;;;;;5019138;28;20487;-48
2021/01/15 05:10:55;;;;;;;10.90;7.80;;;1.10;99.90;;;;;;5017278;28;20472;-48
2021/01/15 05:13:23;;;;;;;10.67;7.97;;;1.10;99.90;;;;;;5024569;28;20555;-48
2021/01/15 05:15:53;;;;;;;14.07;9.03;;;1.10;99.90;;;;;;5025406;28;20678;-48
2021/01/15 05:18:20;;;;;;;9.73;7.70;;;1.00;99.90;;;;;;5018903;28;20515;-48
2021/01/15 05:20:49;;;;;;;11.83;7.93;;;1.10;99.90;;;;;;5009065;28;20477;-48
2021/01/15 05:23:17;;;;;;;13.40;8.43;;;1.10;99.90;;;;;;5008922;28;20514;-48
2021/01/15 05:25:46;;;;;;;11.60;8.40;;;1.10;99.90;;;;;;5008006;28;20510;-48
2021/01/15 05:28:16;;;;;;;11.73;8.50;;;1.10;99.90;;;;;;5010051;28;20477;-48
2021/01/15 05:30:45;;;;;;;11.40;8.23;;;1.10;99.90;;;;;;5019620;28;20479;-48
2021/01/15 05:33:17;;;;;;;10.07;8.50;;;1.10;99.90;;;;;;5027198;28;20897;-48
2021/01/15 05:35:47;;;;;;;10.40;7.93;;;1.10;99.90;;;;;;5027622;28;20534;-48
2021/01/15 05:38:18;;;;;;;11.73;8.47;;;1.10;99.90;;;;;;5018219;28;20882;-48
2021/01/15 05:40:49;;;;;;;11.37;8.47;;;1.10;99.90;;;;;;5007326;28;20583;-48
2021/01/15 05:43:25;;;;;;;10.30;8.37;;;1.10;99.90;;;;;;5007356;28;20492;-48
2021/01/15 05:46:18;;;;;;;12.23;8.60;;;1.20;99.90;;;;;;5008056;28;20998;-48
2021/01/15 05:48:49;;;;;;;11.43;8.17;;;1.10;99.90;;;;;;5014310;28;20583;-48
2021/01/15 05:51:25;;;;;;;11.50;7.77;;;1.20;99.90;;;;;;5006646;28;20492;-48
2021/01/15 05:54:30;;;;;;;11.40;8.27;;;1.10;99.90;;;;;;5004900;28;20857;-48
2021/01/15 05:56:59;;;;;;;11.97;8.73;;;1.10;99.90;;;;;;5007394;28;20495;-48
2021/01/15 05:59:28;;;;;;;12.37;9.43;;;1.10;99.90;;;;;;5019865;28;20874;-48
2021/01/15 06:01:59;;;;;;;12.07;8.87;;;1.10;99.90;;;;;;5027803;28;20468;-48
2021/01/15 06:04:39;;;;;;;11.93;8.43;;;1.10;99.90;;;;;;5027573;28;20479;-48
2021/01/15 06:07:19;;;;;;;11.63;8.33;;;1.10;99.90;;;;;;5027491;28;20491;-49
2021/01/15 06:09:49;;;;;;;12.60;8.57;;;1.10;99.90;;;;;;5011128;28;20476;-48
2021/01/15 06:12:19;;;;;;;11.30;8.60;;;1.10;99.90;;;;;;5026840;28;20491;-48
2021/01/15 06:14:56;;;;;;;13.00;8.93;;;1.10;99.90;;;;;;5027461;28;20475;-48
2021/01/15 06:17:25;;;;;;;13.20;9.13;;;1.00;99.90;;;;;;5025797;28;20526;-48
2021/01/15 06:19:56;;;;;;;12.30;9.23;;;1.00;99.90;;;;;;5008383;28;20476;-48
2021/01/15 06:22:32;;;;;;;11.20;8.90;;;1.10;99.90;;;;;;5024370;28;20472;-49
2021/01/15 06:25:07;;;;;;;12.20;8.97;;;1.10;99.90;;;;;;5030099;28;20514;-48
2021/01/15 06:27:36;;;;;;;12.30;9.40;;;1.10;99.90;;;;;;5028154;28;20490;-48
2021/01/15 06:30:08;;;;;;;13.00;9.67;;;1.10;99.90;;;;;;5021077;28;20531;-48
2021/01/15 06:32:36;;;;;;;13.03;9.03;;;1.10;99.90;;;;;;5030542;28;20566;-48
2021/01/15 06:35:06;;;;;;;11.70;9.00;;;1.10;99.90;;;;;;5031317;28;20636;-48
2021/01/15 06:38:00;;;;;;;13.30;9.27;;;1.00;99.90;;;;;;4997193;28;20486;-48
2021/01/15 06:40:36;;;;;;;12.47;9.17;;;1.00;99.90;;;;;;5014094;28;20464;-48
2021/01/15 06:43:05;;;;;;;11.40;8.57;;;1.00;99.90;;;;;;5010347;28;20493;-48
2021/01/15 06:45:42;;;;;;;10.77;8.50;;;1.00;99.90;;;;;;5011103;28;20475;-48
2021/01/15 06:48:12;;;;;;;12.00;9.20;;;1.00;99.90;;;;;;5009255;28;21049;-48
2021/01/15 06:50:41;;;;;;;12.13;8.63;;;1.00;99.90;;;;;;5009441;28;20996;-48
2021/01/15 06:53:17;;;;;;;14.57;9.50;;;1.00;99.90;;;;;;5014624;28;20590;-48
2021/01/15 06:55:47;;;;;;;13.43;9.57;;;1.00;99.90;;;;;;5028111;28;20480;-48
2021/01/15 06:58:21;;;;;;;14.10;10.20;;;1.00;99.90;;;;;;4998597;28;20574;-48
2021/01/15 07:01:16;;;;;;;17.20;10.87;;;0.90;99.90;;;;;;5009406;28;20494;-48
2021/01/15 07:04:26;;;;;;;14.40;10.90;;;1.00;99.90;;;;;;5008899;28;20526;-48
2021/01/15 07:07:11;;;;;;;15.73;11.47;;;0.90;99.90;;;;;;5009266;28;20472;-48
2021/01/15 07:09:41;;;;;;;17.63;11.50;;;0.90;99.90;;;;;;5010493;28;20992;-48
2021/01/15 07:12:13;;;;;;;15.03;11.60;;;1.00;99.90;;;;;;5010701;28;20476;-48
2021/01/15 07:14:48;;;;;;;14.63;11.73;;;0.90;99.90;;;;;;5010490;28;20543;-48
2021/01/15 07:17:27;;;;;;;15.23;11.47;;;1.00;99.90;;;;;;5018603;28;20500;-48
2021/01/15 07:20:05;;;;;;;17.40;12.00;;;1.00;99.90;;;;;;5026895;28;20482;-48
2021/01/15 07:22:43;;;;;;;21.23;13.77;;;0.90;99.90;;;;;;5029679;28;20471;-48
2021/01/15 07:25:13;;;;;;;17.27;12.57;;;0.90;99.90;;;;;;5021799;28;20483;-48
2021/01/15 07:27:42;;;;;;;20.10;13.93;;;0.90;99.90;;;;;;5010466;28;20484;-49
2021/01/15 07:30:19;;;;;;;19.67;14.77;;;0.90;99.90;;;;;;5010441;28;20556;-48
2021/01/15 07:32:51;;;;;;;19.93;14.17;;;0.90;99.90;;;;;;5009971;28;20575;-48
2021/01/15 07:35:21;;;;;;;20.80;13.63;;;0.90;99.90;;;;;;5009383;28;20480;-48
2021/01/15 07:37:49;;;;;;;21.60;13.97;;;0.90;99.90;;;;;;5009763;28;20491;-49
2021/01/15 07:40:20;;;;;;;20.20;15.30;;;0.80;99.90;;;;;;5010324;28;20992;-48
2021/01/15 07:42:54;;;;;;;19.27;14.30;;;0.80;99.90;;;;;;5015337;28;20567;-48
2021/01/15 07:45:54;;;;;;;18.60;13.33;;;0.80;99.90;;;;;;5017546;28;20495;-52
2021/01/15 07:48:22;;;;;;;20.40;14.27;;;0.80;99.90;;;;;;5001552;28;20471;-48
2021/01/15 07:50:51;;;;;;;21.07;14.20;;;0.80;99.90;;;;;;5010730;28;20475;-49
2021/01/15 07:53:41;;;;;;;20.10;13.70;;;0.80;99.90;;;;;;5026421;28;20559;-48
2021/01/15 07:56:10;;;;;;;18.33;13.13;;;0.70;99.90;;;;;;5010833;28;20822;-49
2021/01/15 07:58:48;;;;;;;18.70;12.73;;;0.70;99.90;;;;;;5008092;28;21071;-48
2021/01/15 08:01:17;;;;;;;16.60;11.87;;;0.70;99.90;;;;;;5009630;28;20825;-48
2021/01/15 08:03:47;;;;;;;17.77;12.70;;;0.70;99.90;;;;;;5009385;28;20920;-48
2021/01/15 08:06:17;;;;;;;16.17;11.80;;;0.70;99.90;;;;;;5017513;28;20822;-48
2021/01/15 08:08:59;;;;;;;18.90;12.87;;;0.70;99.90;;;;;;5023962;28;20467;-48
2021/01/15 08:11:27;;;;;;;21.03;13.10;;;0.70;99.90;;;;;;5029082;28;20547;-48
2021/01/15 08:14:12;;;;;;;15.57;12.17;;;0.60;99.90;;;;;;5029152;28;20843;-48
2021/01/15 08:16:42;;;;;;;18.13;12.67;;;0.60;99.90;;;;;;5009468;28;20483;-48
2021/01/15 08:19:10;;;;;;;17.47;12.60;;;0.60;99.90;;;;;;5008999;28;20567;-49
2021/01/15 08:21:40;;;;;;;16.83;12.30;;;0.60;99.90;;;;;;5009144;28;20476;-48
2021/01/15 08:24:10;;;;;;;15.70;11.63;;;0.70;99.90;;;;;;5011770;28;20480;-48
2021/01/15 08:26:50;;;;;;;17.83;12.37;;;0.60;99.90;;;;;;5017007;28;20574;-48
2021/01/15 08:29:20;;;;;;;16.67;11.63;;;0.60;99.90;;;;;;5009942;28;20807;-48
2021/01/15 08:31:48;;;;;;;18.67;13.10;;;0.60;99.90;;;;;;5008226;28;20483;-48
2021/01/15 08:34:29;;;;;;;17.43;11.93;;;0.60;99.90;;;;;;5006927;28;20484;-48
2021/01/15 08:37:00;;;;;;;18.43;13.00;;;0.60;99.90;;;;;;5007902;28;20484;-48
2021/01/15 08:39:42;;;;;;;16.77;11.60;;;0.60;99.90;;;;;;5008338;28;20484;-48
2021/01/15 08:42:09;;;;;;;16.77;12.17;;;0.60;99.90;;;;;;5004480;28;20580;-48
2021/01/15 08:44:38;;;;;;;14.07;10.70;;;0.60;99.90;;;;;;5008032;28;20464;-48
2021/01/15 08:47:12;;;;;;;16.53;12.10;;;0.50;99.90;;;;;;5003795;28;20542;-48
2021/01/15 08:49:51;;;;;;;15.20;11.73;;;0.50;99.90;;;;;;5014255;28;20515;-48
2021/01/15 08:52:23;;;;;;;16.60;11.33;;;0.50;99.90;;;;;;5012382;28;20495;-48
2021/01/15 08:54:53;;;;;;;17.43;12.33;;;0.60;99.90;;;;;;5010719;28;20511;-48
2021/01/15 08:57:25;;;;;;;17.80;12.53;;;0.60;99.90;;;;;;5008796;28;20535;-48
2021/01/15 08:59:53;;;;;;;16.80;12.00;;;0.50;99.90;;;;;;5006599;28;20481;-48
2021/01/15 09:02:22;;;;;;;16.30;11.93;;;0.60;99.90;;;;;;5010204;28;20538;-48
2021/01/15 09:04:53;;;;;;;16.70;11.77;;;0.60;99.90;;;;;;5009930;28;20496;-48
2021/01/15 09:07:23;;;;;;;17.93;11.10;;;0.60;99.90;;;;;;5008303;28;20476;-48
2021/01/15 09:09:51;;;;;;;15.80;11.60;;;0.60;99.90;;;;;;5008414;28;20783;-48
2021/01/15 09:12:21;;;;;;;17.37;12.07;;;0.60;99.90;;;;;;5005244;28;20493;-48
2021/01/15 09:14:49;;;;;;;16.83;11.87;;;0.70;99.90;;;;;;5006608;28;20491;-48
2021/01/15 09:17:17;;;;;;;16.40;11.43;;;0.60;99.90;;;;;;5006434;28;20505;-48
2021/01/15 09:19:44;;;;;;;17.53;11.23;;;0.60;99.90;;;;;;5006893;28;20495;-48
2021/01/15 09:22:18;;;;;;;14.93;11.27;;;0.60;99.90;;;;;;5006521;28;20476;-48
2021/01/15 09:24:45;;;;;;;16.00;10.97;;;0.60;99.90;;;;;;5005250;28;20471;-48
2021/01/15 09:27:18;;;;;;;16.60;11.53;;;0.60;99.90;;;;;;5007304;28;20483;-48
2021/01/15 09:29:45;;;;;;;16.77;10.57;;;0.70;99.90;;;;;;5006657;28;20484;-48
2021/01/15 09:32:13;;;;;;;14.73;10.23;;;0.70;99.90;;;;;;5006683;28;20491;-48
2021/01/15 09:34:43;;;;;;;14.27;10.50;;;0.70;99.90;;;;;;3635219;28;10024513;-48
2021/01/15 09:37:11;;;;;;;16.27;10.23;;;0.70;99.90;;;;;;2425045;28;10002236;-48
2021/01/15 09:39:38;;;;;;;15.93;10.67;;;0.70;99.90;;;;;;5026925;28;20700;-48
2021/01/15 09:42:06;;;;;;;14.93;10.50;;;0.70;99.90;;;;;;5007878;28;20984;-48
2021/01/15 09:44:35;;;;;;;15.10;11.00;;;0.70;99.90;;;;;;5006974;28;20479;-48
2021/01/15 09:47:05;;;;;;;16.27;10.87;;;0.70;99.90;;;;;;5016487;28;20610;-49
2021/01/15 09:49:33;;;;;;;15.20;10.97;;;0.70;99.90;;;;;;5025203;28;20556;-49
2021/01/15 09:52:02;;;;;;;14.53;10.87;;;0.70;99.90;;;;;;5007339;28;20480;-48
2021/01/15 09:54:30;;;;;;;15.53;9.93;;;0.70;99.90;;;;;;5012809;28;20475;-48
2021/01/15 09:56:57;;;;;;;14.93;10.17;;;0.70;99.90;;;;;;5009518;28;20480;-48
2021/01/15 09:59:26;;;;;;;15.07;11.30;;;0.70;99.90;;;;;;5006348;28;20550;-48
2021/01/15 10:01:54;;;;;;;14.20;10.07;;;0.70;99.90;;;;;;5006617;28;20998;-48
2021/01/15 10:04:22;;;;;;;15.90;10.53;;;0.70;99.90;;;;;;5006425;28;20456;-48
2021/01/15 10:06:49;;;;;;;14.00;10.27;;;0.70;99.90;;;;;;5006806;28;20480;-48
2021/01/15 10:09:17;;;;;;;14.70;10.57;;;0.80;99.90;;;;;;5006670;28;20480;-48
2021/01/15 10:11:46;;;;;;;14.23;10.17;;;0.80;99.90;;;;;;5005791;28;20936;-48
2021/01/15 10:14:15;;;;;;;15.15;13.23;;;0.70;99.90;;;;;;5005569;28;20435;-49
2021/01/15 10:16:46;;;;;;;13.60;10.20;;;0.70;99.90;;;;;;5006583;28;20233;-49
2021/01/15 10:19:16;;;;;;;13.90;10.63;;;0.80;99.90;;;;;;5004961;28;20991;-49
2021/01/15 10:21:44;;;;;;;12.70;9.50;;;0.80;99.90;;;;;;5013755;28;20590;-50
2021/01/15 10:24:13;;;;;;;13.03;9.70;;;0.80;99.90;;;;;;5023879;28;20849;-49
2021/01/15 10:26:41;;;;;;;16.40;10.60;;;0.80;99.90;;;;;;5015638;28;20987;-49
2021/01/15 10:29:11;;;;;;;14.48;11.52;;;0.80;99.90;;;;;;5005810;28;20463;-49
2021/01/15 10:31:45;;;;;;;14.53;9.90;;;0.70;99.90;;;;;;5005707;28;20245;-48
2021/01/15 10:34:12;;;;;;;11.87;9.40;;;0.50;99.90;;;;;;5006608;28;20547;-49
2021/01/15 10:36:42;;;;;;;12.73;9.33;;;0.40;99.90;;;;;;5007960;28;20533;-49
2021/01/15 10:39:10;;;;;;;12.70;8.73;;;0.40;99.90;;;;;;5005063;28;20516;-48
2021/01/15 10:41:39;;;;;;;14.23;9.67;;;0.40;99.90;;;;;;4999614;28;20877;-48
2021/01/15 10:44:09;;;;;;;13.07;9.07;;;0.50;99.90;;;;;;5003832;28;20875;-48
2021/01/15 10:46:38;;;;;;;11.87;9.30;;;0.60;99.90;;;;;;5018971;28;20486;-48
2021/01/15 10:49:07;;;;;;;13.63;8.73;;;0.70;99.90;;;;;;5005139;28;20534;-48
2021/01/15 10:51:35;;;;;;;12.77;8.90;;;0.70;99.90;;;;;;5000926;28;20504;-48
2021/01/15 10:54:03;;;;;;;11.13;8.60;;;0.60;99.90;;;;;;4998646;28;20480;-48
2021/01/15 10:56:35;;;;;;;12.50;9.00;;;0.70;99.90;;;;;;5008767;28;20475;-49
2021/01/15 10:59:03;;;;;;;11.67;8.27;;;0.70;99.90;;;;;;5004169;28;20518;-48
2021/01/15 11:01:37;;;;;;;12.90;9.30;;;0.70;99.90;;;;;;5004639;28;20484;-48
2021/01/15 11:04:07;;;;;;;12.67;9.00;;;0.60;99.90;;;;;;5001471;28;20479;-49
2021/01/15 11:06:37;;;;;;;12.67;8.73;;;0.60;99.90;;;;;;5005888;28;20551;-49
2021/01/15 11:09:08;;;;;;;12.77;9.00;;;0.60;99.90;;;;;;5013236;28;20519;-48
2021/01/15 11:11:56;;;;;;;12.87;8.90;;;0.60;99.90;;;;;;5009775;28;20565;-48
2021/01/15 11:14:24;;;;;;;13.07;9.20;;;0.60;99.90;;;;;;5009453;28;20472;-48
2021/01/15 11:16:54;;;;;;;13.53;9.37;;;0.60;99.90;;;;;;5006502;28;20492;-49
2021/01/15 11:19:21;;;;;;;12.93;8.97;;;0.70;99.90;;;;;;5000180;28;20472;-48
2021/01/15 11:21:50;;;;;;;13.70;9.77;;;0.60;99.90;;;;;;5006892;28;20484;-48
2021/01/15 11:24:19;;;;;;;12.53;8.93;;;0.70;99.90;;;;;;5009255;28;20571;-48
2021/01/15 11:26:46;;;;;;;12.53;9.33;;;0.70;99.90;;;;;;5006561;28;21037;-48
2021/01/15 11:29:14;;;;;;;14.57;8.97;;;0.70;99.90;;;;;;5009752;28;20844;-48
2021/01/15 11:31:43;;;;;;;13.17;9.23;;;0.70;99.90;;;;;;5008454;28;21162;-48
2021/01/15 11:34:11;;;;;;;12.63;9.00;;;0.70;99.90;;;;;;5008398;28;20484;-48
2021/01/15 11:36:39;;;;;;;12.40;9.37;;;0.70;99.90;;;;;;5006608;28;20472;-48
2021/01/15 11:39:08;;;;;;;11.47;8.90;;;0.70;99.90;;;;;;5013751;28;20579;-49
2021/01/15 11:41:37;;;;;;;12.37;8.93;;;0.70;99.90;;;;;;5016579;28;20525;-48
2021/01/15 11:44:06;;;;;;;12.83;9.60;;;0.70;99.90;;;;;;5027828;28;20562;-48
2021/01/15 11:46:33;;;;;;;14.17;10.00;;;0.70;99.90;;;;;;5014066;28;20476;-49
2021/01/15 11:49:01;;;;;;;12.00;8.83;;;0.70;99.90;;;;;;5007140;28;20567;-48
2021/01/15 11:51:29;;;;;;;13.07;9.17;;;0.60;99.90;;;;;;4996449;28;20491;-48
2021/01/15 11:53:57;;;;;;;11.33;8.90;;;0.60;99.90;;;;;;5001843;28;20530;-48
2021/01/15 11:56:25;;;;;;;12.27;9.37;;;0.60;99.90;;;;;;5008162;28;20852;-48
2021/01/15 11:58:53;;;;;;;12.70;8.93;;;0.60;99.90;;;;;;5000097;28;20996;-48
2021/01/15 12:01:21;;;;;;;12.17;8.87;;;0.60;99.90;;;;;;4996966;28;20494;-48
2021/01/15 12:03:49;;;;;;;12.27;9.27;;;0.60;99.90;;;;;;4990913;28;20489;-48
2021/01/15 12:06:17;;;;;;;12.07;9.00;;;0.60;99.90;;;;;;5010953;28;20475;-48
2021/01/15 12:08:44;;;;;;;12.93;9.47;;;0.60;99.90;;;;;;5023003;28;20951;-48
2021/01/15 12:11:11;;;;;;;12.87;9.50;;;0.60;99.90;;;;;;5025041;28;20483;-49
2021/01/15 12:13:39;;;;;;;14.33;9.97;;;0.60;99.90;;;;;;5027264;28;20550;-48
2021/01/15 12:16:10;;;;;;;13.53;8.93;;;0.60;99.90;;;;;;5013868;28;20542;-48
2021/01/15 12:18:37;;;;;;;12.80;9.00;;;0.60;99.90;;;;;;5007240;28;20551;-48
2021/01/15 12:21:05;;;;;;;12.97;8.60;;;0.60;99.90;;;;;;5016511;28;20522;-48
2021/01/15 12:23:32;;;;;;;11.80;8.87;;;0.60;99.90;;;;;;5026968;28;20478;-48
2021/01/15 12:26:02;;;;;;;13.20;9.23;;;0.60;99.90;;;;;;5001823;28;21091;-48
2021/01/15 12:28:29;;;;;;;12.03;8.57;;;0.60;99.90;;;;;;4999989;28;20491;-48
2021/01/15 12:30:56;;;;;;;11.80;9.63;;;0.60;99.90;;;;;;5001796;28;20964;-48
2021/01/15 12:33:25;;;;;;;16.03;9.30;;;0.60;99.90;;;;;;4996814;28;20988;-50
2021/01/15 12:35:52;;;;;;;12.20;9.13;;;0.60;99.90;;;;;;5006530;28;20580;-48
2021/01/15 12:38:22;;;;;;;12.40;9.03;;;0.60;99.90;;;;;;5002725;28;20568;-48
2021/01/15 12:40:51;;;;;;;10.97;8.43;;;0.60;99.90;;;;;;5009071;28;20574;-49
2021/01/15 12:43:20;;;;;;;12.40;8.67;;;0.60;99.90;;;;;;5008349;28;20841;-48
2021/01/15 12:45:50;;;;;;;12.07;8.83;;;0.60;99.90;;;;;;5006678;28;20566;-48
2021/01/15 12:48:18;;;;;;;12.13;8.03;;;0.70;99.90;;;;;;5008348;28;20486;-49
2021/01/15 12:50:47;;;;;;;11.10;8.27;;;0.70;99.90;;;;;;5009184;28;20488;-49
2021/01/15 12:53:14;;;;;;;12.50;8.43;;;0.70;99.90;;;;;;5001945;28;20488;-48
2021/01/15 12:55:42;;;;;;;11.27;8.03;;;0.70;99.90;;;;;;5004244;28;21010;-48
2021/01/15 12:58:10;;;;;;;10.80;7.97;;;0.60;99.90;;;;;;5003515;28;20489;-49
2021/01/15 13:00:37;;;;;;;11.53;8.80;;;0.60;99.90;;;;;;5003743;28;20802;-48
2021/01/15 13:03:05;;;;;;;13.10;8.40;;;0.70;99.90;;;;;;5006462;28;20565;-48